sensor_id;sensor_type;location;lat;lon;timestamp;pressure;altitude;pressure_sealevel;temperature;humidity
41596;BME280;27283;52.504;13.358;2023-06-26T00:01:47;101207.00;;;20.35;90.80
41596;BME280;27283;52.504;13.358;2023-06-26T00:04:19;101210.78;;;20.34;91.61
41596;BME280;27283;52.504;13.358;2023-06-26T00:06:51;101217.91;;;20.35;90.63
41596;BME280;27283;52.504;13.358;2023-06-26T00:09:23;101210.56;;;20.36;90.83
41596;BME280;27283;52.504;13.358;2023-06-26T00:11:56;101211.16;;;20.38;90.50
41596;BME280;27283;52.504;13.358;2023-06-26T00:14:28;101215.63;;;20.32;91.01
41596;BME280;27283;52.504;13.358;2023-06-26T00:17:05;101201.97;;;20.32;91.08
41596;BME280;27283;52.504;13.358;2023-06-26T00:19:49;101207.03;;;20.29;91.43
41596;BME280;27283;52.504;13.358;2023-06-26T00:22:25;101208.94;;;20.28;90.97
41596;BME280;27283;52.504;13.358;2023-06-26T00:24:57;101208.72;;;20.30;90.81
41596;BME280;27283;52.504;13.358;2023-06-26T00:27:30;101200.72;;;20.28;90.67
41596;BME280;27283;52.504;13.358;2023-06-26T00:30:03;101209.16;;;20.27;90.90
41596;BME280;27283;52.504;13.358;2023-06-26T00:32:38;101216.50;;;20.26;91.27
41596;BME280;27283;52.504;13.358;2023-06-26T00:35:11;101200.34;;;20.25;91.21
41596;BME280;27283;52.504;13.358;2023-06-26T00:37:43;101200.56;;;20.23;91.73
41596;BME280;27283;52.504;13.358;2023-06-26T00:40:15;101196.97;;;20.23;91.87
41596;BME280;27283;52.504;13.358;2023-06-26T00:42:49;101196.16;;;20.22;92.07
41596;BME280;27283;52.504;13.358;2023-06-26T00:45:21;101194.25;;;20.23;92.02
41596;BME280;27283;52.504;13.358;2023-06-26T00:48:27;101198.66;;;20.24;92.20
41596;BME280;27283;52.504;13.358;2023-06-26T00:50:59;101193.19;;;20.24;92.14
41596;BME280;27283;52.504;13.358;2023-06-26T00:53:37;101196.75;;;20.24;92.44
41596;BME280;27283;52.504;13.358;2023-06-26T00:56:09;101192.38;;;20.23;91.49
41596;BME280;27283;52.504;13.358;2023-06-26T00:58:42;101188.78;;;20.23;91.97
41596;BME280;27283;52.504;13.358;2023-06-26T01:01:16;101195.31;;;20.22;91.98
41596;BME280;27283;52.504;13.358;2023-06-26T01:03:53;101187.47;;;20.32;92.06
41596;BME280;27283;52.504;13.358;2023-06-26T01:06:28;101181.41;;;20.30;92.16
41596;BME280;27283;52.504;13.358;2023-06-26T01:09:04;101186.63;;;20.31;92.03
41596;BME280;27283;52.504;13.358;2023-06-26T01:11:39;101180.97;;;20.33;90.10
41596;BME280;27283;52.504;13.358;2023-06-26T01:14:14;101177.97;;;20.41;90.77
41596;BME280;27283;52.504;13.358;2023-06-26T01:16:47;101175.41;;;20.46;89.27
41596;BME280;27283;52.504;13.358;2023-06-26T01:19:28;101180.88;;;20.46;89.17
41596;BME280;27283;52.504;13.358;2023-06-26T01:22:19;101184.84;;;20.50;88.99
41596;BME280;27283;52.504;13.358;2023-06-26T01:25:01;101182.09;;;20.50;89.74
41596;BME280;27283;52.504;13.358;2023-06-26T01:28:05;101180.81;;;20.53;89.49
41596;BME280;27283;52.504;13.358;2023-06-26T01:31:46;101174.75;;;20.51;88.54
41596;BME280;27283;52.504;13.358;2023-06-26T01:34:58;101169.50;;;20.49;88.48
41596;BME280;27283;52.504;13.358;2023-06-26T01:38:43;101159.84;;;20.47;87.92
41596;BME280;27283;52.504;13.358;2023-06-26T01:50:06;101155.25;;;20.47;88.80
41596;BME280;27283;52.504;13.358;2023-06-26T01:56:38;101157.13;;;20.47;87.01
41596;BME280;27283;52.504;13.358;2023-06-26T02:00:02;101146.75;;;20.56;87.22
41596;BME280;27283;52.504;13.358;2023-06-26T02:02:52;101143.88;;;20.50;87.96
41596;BME280;27283;52.504;13.358;2023-06-26T02:06:00;101143.88;;;20.50;88.26
41596;BME280;27283;52.504;13.358;2023-06-26T02:09:56;101143.88;;;20.50;88.34
41596;BME280;27283;52.504;13.358;2023-06-26T02:13:22;101149.03;;;20.59;87.65
41596;BME280;27283;52.504;13.358;2023-06-26T02:20:28;101151.31;;;20.62;86.88
41596;BME280;27283;52.504;13.358;2023-06-26T02:23:39;101146.91;;;20.61;87.69
41596;BME280;27283;52.504;13.358;2023-06-26T02:26:37;101144.19;;;20.61;86.86
41596;BME280;27283;52.504;13.358;2023-06-26T02:29:50;101148.59;;;20.62;86.68
41596;BME280;27283;52.504;13.358;2023-06-26T02:32:36;101145.00;;;20.68;86.38
41596;BME280;27283;52.504;13.358;2023-06-26T02:39:41;101151.97;;;20.64;87.33
41596;BME280;27283;52.504;13.358;2023-06-26T02:42:14;101141.66;;;20.66;86.57
41596;BME280;27283;52.504;13.358;2023-06-26T02:44:46;101138.72;;;20.67;86.41
41596;BME280;27283;52.504;13.358;2023-06-26T02:47:24;101140.63;;;20.67;86.13
41596;BME280;27283;52.504;13.358;2023-06-26T02:49:57;101135.38;;;20.65;86.25
41596;BME280;27283;52.504;13.358;2023-06-26T02:52:30;101134.47;;;20.71;85.37
41596;BME280;27283;52.504;13.358;2023-06-26T02:55:08;101140.31;;;20.75;84.69
41596;BME280;27283;52.504;13.358;2023-06-26T02:57:42;101134.94;;;20.68;85.22
41596;BME280;27283;52.504;13.358;2023-06-26T03:00:15;101131.16;;;20.63;86.44
41596;BME280;27283;52.504;13.358;2023-06-26T03:02:47;101130.44;;;20.49;87.85
41596;BME280;27283;52.504;13.358;2023-06-26T03:05:19;101126.69;;;20.43;88.50
41596;BME280;27283;52.504;13.358;2023-06-26T03:07:53;101119.97;;;20.46;88.43
41596;BME280;27283;52.504;13.358;2023-06-26T03:10:27;101119.38;;;20.37;89.52
41596;BME280;27283;52.504;13.358;2023-06-26T03:13:00;101116.31;;;20.27;90.83
41596;BME280;27283;52.504;13.358;2023-06-26T03:15:34;101120.72;;;20.28;90.75
41596;BME280;27283;52.504;13.358;2023-06-26T03:18:13;101115.56;;;20.38;89.93
41596;BME280;27283;52.504;13.358;2023-06-26T03:21:08;101117.94;;;20.34;89.97
41596;BME280;27283;52.504;13.358;2023-06-26T03:23:50;101113.28;;;20.35;89.25
41596;BME280;27283;52.504;13.358;2023-06-26T03:26:33;101115.47;;;20.26;89.94
41596;BME280;27283;52.504;13.358;2023-06-26T03:29:23;101110.34;;;20.36;88.67
41596;BME280;27283;52.504;13.358;2023-06-26T03:32:08;101106.56;;;20.38;88.30
41596;BME280;27283;52.504;13.358;2023-06-26T03:34:47;101111.97;;;20.44;86.69
41596;BME280;27283;52.504;13.358;2023-06-26T03:37:22;101114.09;;;20.42;87.40
41596;BME280;27283;52.504;13.358;2023-06-26T03:39:54;101110.66;;;20.53;87.08
41596;BME280;27283;52.504;13.358;2023-06-26T03:42:31;101115.22;;;20.60;87.43
41596;BME280;27283;52.504;13.358;2023-06-26T03:45:04;101111.16;;;20.69;86.15
41596;BME280;27283;52.504;13.358;2023-06-26T03:47:39;101100.69;;;20.66;88.11
41596;BME280;27283;52.504;13.358;2023-06-26T03:50:12;101103.78;;;20.69;86.29
41596;BME280;27283;52.504;13.358;2023-06-26T03:52:45;101110.41;;;20.55;88.50
41596;BME280;27283;52.504;13.358;2023-06-26T03:55:19;101108.06;;;20.59;87.46
41596;BME280;27283;52.504;13.358;2023-06-26T03:57:56;101103.06;;;20.81;85.30
41596;BME280;27283;52.504;13.358;2023-06-26T04:00:30;101106.75;;;20.68;87.10
41596;BME280;27283;52.504;13.358;2023-06-26T04:03:03;101102.88;;;20.76;87.04
41596;BME280;27283;52.504;13.358;2023-06-26T04:05:35;101106.63;;;20.81;87.57
41596;BME280;27283;52.504;13.358;2023-06-26T04:08:08;101111.72;;;20.96;84.51
41596;BME280;27283;52.504;13.358;2023-06-26T04:10:41;101098.53;;;21.12;82.39
41596;BME280;27283;52.504;13.358;2023-06-26T04:13:18;101110.22;;;21.19;81.67
41596;BME280;27283;52.504;13.358;2023-06-26T04:15:50;101107.41;;;21.25;80.43
41596;BME280;27283;52.504;13.358;2023-06-26T04:18:22;101103.00;;;21.24;81.17
41596;BME280;27283;52.504;13.358;2023-06-26T04:21:05;101097.69;;;21.30;80.27
41596;BME280;27283;52.504;13.358;2023-06-26T04:23:41;101097.38;;;21.38;79.98
41596;BME280;27283;52.504;13.358;2023-06-26T04:26:14;101098.13;;;21.45;79.04
41596;BME280;27283;52.504;13.358;2023-06-26T04:28:55;101098.97;;;21.46;79.15
41596;BME280;27283;52.504;13.358;2023-06-26T04:31:28;101100.59;;;21.35;82.29
41596;BME280;27283;52.504;13.358;2023-06-26T04:34:02;101093.50;;;21.46;80.24
41596;BME280;27283;52.504;13.358;2023-06-26T04:36:36;101091.22;;;21.61;78.50
41596;BME280;27283;52.504;13.358;2023-06-26T04:39:24;101089.53;;;21.79;77.34
41596;BME280;27283;52.504;13.358;2023-06-26T04:42:01;101091.63;;;21.76;78.20
41596;BME280;27283;52.504;13.358;2023-06-26T04:44:48;101091.69;;;21.58;81.26
41596;BME280;27283;52.504;13.358;2023-06-26T04:47:23;101089.06;;;21.93;76.64
41596;BME280;27283;52.504;13.358;2023-06-26T04:50:17;101090.38;;;21.91;75.79
41596;BME280;27283;52.504;13.358;2023-06-26T04:53:02;101087.44;;;21.62;83.78
41596;BME280;27283;52.504;13.358;2023-06-26T04:55:36;101087.31;;;21.99;77.18
41596;BME280;27283;52.504;13.358;2023-06-26T05:01:22;101092.31;;;22.02;79.34
41596;BME280;27283;52.504;13.358;2023-06-26T05:03:59;101086.94;;;22.97;72.89
41596;BME280;27283;52.504;13.358;2023-06-26T05:06:32;101080.28;;;24.20;67.04
41596;BME280;27283;52.504;13.358;2023-06-26T05:09:04;101080.16;;;24.61;63.83
41596;BME280;27283;52.504;13.358;2023-06-26T05:11:40;101088.56;;;24.37;63.90
41596;BME280;27283;52.504;13.358;2023-06-26T05:14:13;101086.78;;;24.14;64.99
41596;BME280;27283;52.504;13.358;2023-06-26T05:16:50;101082.09;;;23.97;65.54
41596;BME280;27283;52.504;13.358;2023-06-26T05:19:23;101091.69;;;23.66;67.58
41596;BME280;27283;52.504;13.358;2023-06-26T05:21:58;101083.81;;;23.58;67.12
41596;BME280;27283;52.504;13.358;2023-06-26T05:24:39;101085.25;;;23.60;67.54
41596;BME280;27283;52.504;13.358;2023-06-26T05:27:34;101078.53;;;23.39;68.72
41596;BME280;27283;52.504;13.358;2023-06-26T05:30:23;101072.09;;;23.33;68.65
41596;BME280;27283;52.504;13.358;2023-06-26T05:33:13;101076.81;;;23.50;67.89
41596;BME280;27283;52.504;13.358;2023-06-26T05:35:53;101064.78;;;23.51;67.04
41596;BME280;27283;52.504;13.358;2023-06-26T05:38:32;101074.97;;;23.39;67.13
41596;BME280;27283;52.504;13.358;2023-06-26T05:41:09;101066.22;;;22.77;72.94
41596;BME280;27283;52.504;13.358;2023-06-26T05:43:42;101059.94;;;23.29;67.70
41596;BME280;27283;52.504;13.358;2023-06-26T05:46:16;101053.63;;;23.58;67.78
41596;BME280;27283;52.504;13.358;2023-06-26T05:48:54;101046.59;;;23.79;67.39
41596;BME280;27283;52.504;13.358;2023-06-26T05:51:28;101050.50;;;25.02;62.08
41596;BME280;27283;52.504;13.358;2023-06-26T05:54:02;101055.03;;;26.12;58.22
41596;BME280;27283;52.504;13.358;2023-06-26T05:56:39;101059.88;;;26.75;55.32
41596;BME280;27283;52.504;13.358;2023-06-26T05:59:30;101054.97;;;27.45;53.50
41596;BME280;27283;52.504;13.358;2023-06-26T06:03:00;101043.38;;;27.53;52.16
41596;BME280;27283;52.504;13.358;2023-06-26T06:06:14;101040.41;;;28.37;48.80
41596;BME280;27283;52.504;13.358;2023-06-26T06:09:27;101040.69;;;29.37;45.34
41596;BME280;27283;52.504;13.358;2023-06-26T06:12:13;101037.41;;;27.98;51.46
41596;BME280;27283;52.504;13.358;2023-06-26T06:15:06;101041.75;;;27.73;54.54
41596;BME280;27283;52.504;13.358;2023-06-26T06:17:59;101037.63;;;28.73;46.18
41596;BME280;27283;52.504;13.358;2023-06-26T06:20:43;101035.44;;;29.80;43.29
41596;BME280;27283;52.504;13.358;2023-06-26T06:23:33;101029.16;;;29.64;43.11
41596;BME280;27283;52.504;13.358;2023-06-26T06:26:19;101035.22;;;29.22;43.95
41596;BME280;27283;52.504;13.358;2023-06-26T06:28:57;101032.03;;;29.44;41.86
41596;BME280;27283;52.504;13.358;2023-06-26T06:31:47;101041.03;;;30.39;40.00
41596;BME280;27283;52.504;13.358;2023-06-26T06:34:46;101038.50;;;29.29;47.26
41596;BME280;27283;52.504;13.358;2023-06-26T06:37:59;101036.31;;;29.70;41.77
41596;BME280;27283;52.504;13.358;2023-06-26T06:40:47;101029.50;;;29.97;41.13
41596;BME280;27283;52.504;13.358;2023-06-26T06:43:20;101026.16;;;29.56;45.43
41596;BME280;27283;52.504;13.358;2023-06-26T06:45:58;101026.31;;;29.35;43.74
41596;BME280;27283;52.504;13.358;2023-06-26T06:48:37;101027.41;;;30.13;42.68
41596;BME280;27283;52.504;13.358;2023-06-26T06:51:14;101034.06;;;31.19;38.94
41596;BME280;27283;52.504;13.358;2023-06-26T06:54:04;101025.38;;;30.78;40.78
41596;BME280;27283;52.504;13.358;2023-06-26T06:57:25;101019.47;;;31.08;39.08
41596;BME280;27283;52.504;13.358;2023-06-26T07:00:19;101024.47;;;31.69;37.32
41596;BME280;27283;52.504;13.358;2023-06-26T07:03:20;101019.72;;;31.50;37.74
41596;BME280;27283;52.504;13.358;2023-06-26T07:06:02;101024.44;;;31.31;44.01
41596;BME280;27283;52.504;13.358;2023-06-26T07:08:40;101012.88;;;31.04;40.71
41596;BME280;27283;52.504;13.358;2023-06-26T07:11:38;101009.59;;;31.78;39.63
41596;BME280;27283;52.504;13.358;2023-06-26T07:14:17;101012.66;;;31.20;39.99
41596;BME280;27283;52.504;13.358;2023-06-26T07:16:57;101015.47;;;31.58;42.36
41596;BME280;27283;52.504;13.358;2023-06-26T07:19:57;101013.91;;;30.84;42.82
41596;BME280;27283;52.504;13.358;2023-06-26T07:22:57;101004.78;;;30.60;43.41
41596;BME280;27283;52.504;13.358;2023-06-26T07:25:49;101013.78;;;32.42;36.26
41596;BME280;27283;52.504;13.358;2023-06-26T07:28:58;101006.94;;;32.81;36.68
41596;BME280;27283;52.504;13.358;2023-06-26T07:31:46;100997.09;;;32.97;36.44
41596;BME280;27283;52.504;13.358;2023-06-26T07:34:33;100995.88;;;32.90;35.72
41596;BME280;27283;52.504;13.358;2023-06-26T07:37:11;100996.97;;;32.61;36.41
41596;BME280;27283;52.504;13.358;2023-06-26T07:39:47;100990.63;;;32.74;36.58
41596;BME280;27283;52.504;13.358;2023-06-26T07:42:24;100997.22;;;33.43;33.29
41596;BME280;27283;52.504;13.358;2023-06-26T07:45:13;100988.63;;;33.98;33.39
41596;BME280;27283;52.504;13.358;2023-06-26T07:47:48;100990.22;;;32.81;35.10
41596;BME280;27283;52.504;13.358;2023-06-26T07:50:22;100982.63;;;32.26;37.70
41596;BME280;27283;52.504;13.358;2023-06-26T07:52:56;100977.94;;;31.93;38.01
41596;BME280;27283;52.504;13.358;2023-06-26T07:55:39;100982.97;;;32.52;37.03
41596;BME280;27283;52.504;13.358;2023-06-26T07:58:24;100981.00;;;32.94;33.29
41596;BME280;27283;52.504;13.358;2023-06-26T08:00:59;100977.47;;;33.98;32.37
41596;BME280;27283;52.504;13.358;2023-06-26T08:03:36;100981.63;;;33.78;33.48
41596;BME280;27283;52.504;13.358;2023-06-26T08:06:14;100981.56;;;34.64;30.50
41596;BME280;27283;52.504;13.358;2023-06-26T08:08:48;100976.94;;;35.08;29.43
41596;BME280;27283;52.504;13.358;2023-06-26T08:11:21;100974.63;;;34.92;28.89
41596;BME280;27283;52.504;13.358;2023-06-26T08:13:56;100971.19;;;35.22;28.59
41596;BME280;27283;52.504;13.358;2023-06-26T08:16:30;100971.94;;;34.87;28.01
41596;BME280;27283;52.504;13.358;2023-06-26T08:19:06;100963.72;;;34.33;31.07
41596;BME280;27283;52.504;13.358;2023-06-26T08:21:44;100964.06;;;34.98;30.62
41596;BME280;27283;52.504;13.358;2023-06-26T08:24:19;100967.91;;;34.53;29.62
41596;BME280;27283;52.504;13.358;2023-06-26T08:26:57;100970.56;;;35.51;29.08
41596;BME280;27283;52.504;13.358;2023-06-26T08:29:40;100971.56;;;35.38;28.15
41596;BME280;27283;52.504;13.358;2023-06-26T08:32:26;100969.53;;;35.12;27.87
41596;BME280;27283;52.504;13.358;2023-06-26T08:35:15;100957.56;;;34.54;30.66
41596;BME280;27283;52.504;13.358;2023-06-26T08:37:49;100951.72;;;34.82;29.77
41596;BME280;27283;52.504;13.358;2023-06-26T08:40:30;100949.63;;;34.96;28.68
41596;BME280;27283;52.504;13.358;2023-06-26T08:43:22;100947.59;;;34.70;30.99
41596;BME280;27283;52.504;13.358;2023-06-26T08:45:59;100944.84;;;34.79;29.77
41596;BME280;27283;52.504;13.358;2023-06-26T08:48:39;100940.81;;;34.54;29.54
41596;BME280;27283;52.504;13.358;2023-06-26T08:51:17;100936.69;;;34.11;33.73
41596;BME280;27283;52.504;13.358;2023-06-26T08:53:57;100942.81;;;33.90;31.10
41596;BME280;27283;52.504;13.358;2023-06-26T08:56:32;100945.19;;;34.95;29.45
41596;BME280;27283;52.504;13.358;2023-06-26T08:59:09;100940.56;;;34.90;31.79
41596;BME280;27283;52.504;13.358;2023-06-26T09:01:52;100935.31;;;34.89;30.70
41596;BME280;27283;52.504;13.358;2023-06-26T09:04:50;100927.03;;;34.17;30.39
41596;BME280;27283;52.504;13.358;2023-06-26T09:10:47;100922.38;;;35.45;27.84
41596;BME280;27283;52.504;13.358;2023-06-26T09:13:30;100925.63;;;34.77;30.61
41596;BME280;27283;52.504;13.358;2023-06-26T09:16:06;100920.06;;;35.04;29.56
41596;BME280;27283;52.504;13.358;2023-06-26T09:18:45;100916.03;;;34.61;30.26
41596;BME280;27283;52.504;13.358;2023-06-26T09:21:18;100914.72;;;35.72;27.52
41596;BME280;27283;52.504;13.358;2023-06-26T09:23:55;100909.50;;;36.27;25.35
41596;BME280;27283;52.504;13.358;2023-06-26T09:26:35;100918.13;;;36.43;26.66
41596;BME280;27283;52.504;13.358;2023-06-26T09:29:09;100911.00;;;35.59;29.46
41596;BME280;27283;52.504;13.358;2023-06-26T09:31:45;100907.03;;;35.78;27.00
41596;BME280;27283;52.504;13.358;2023-06-26T09:34:21;100904.41;;;35.64;30.16
41596;BME280;27283;52.504;13.358;2023-06-26T09:36:57;100905.44;;;35.33;28.18
41596;BME280;27283;52.504;13.358;2023-06-26T09:39:32;100904.28;;;35.34;28.52
41596;BME280;27283;52.504;13.358;2023-06-26T09:42:26;100894.25;;;35.07;30.56
41596;BME280;27283;52.504;13.358;2023-06-26T09:46:02;100896.13;;;36.32;26.10
41596;BME280;27283;52.504;13.358;2023-06-26T09:48:40;100895.09;;;35.98;27.68
41596;BME280;27283;52.504;13.358;2023-06-26T09:51:27;100895.28;;;36.62;25.34
41596;BME280;27283;52.504;13.358;2023-06-26T09:54:18;100887.56;;;36.88;25.83
41596;BME280;27283;52.504;13.358;2023-06-26T09:57:15;100879.69;;;36.82;24.79
41596;BME280;27283;52.504;13.358;2023-06-26T09:59:59;100878.84;;;36.22;26.31
41596;BME280;27283;52.504;13.358;2023-06-26T10:02:41;100873.72;;;35.94;28.07
41596;BME280;27283;52.504;13.358;2023-06-26T10:05:17;100862.78;;;36.69;25.32
41596;BME280;27283;52.504;13.358;2023-06-26T10:08:03;100872.22;;;36.65;26.56
41596;BME280;27283;52.504;13.358;2023-06-26T10:11:14;100869.34;;;36.14;28.08
41596;BME280;27283;52.504;13.358;2023-06-26T10:14:21;100864.56;;;35.76;28.02
41596;BME280;27283;52.504;13.358;2023-06-26T10:17:57;100856.50;;;35.83;29.38
41596;BME280;27283;52.504;13.358;2023-06-26T10:20:57;100854.84;;;35.73;29.45
41596;BME280;27283;52.504;13.358;2023-06-26T10:24:27;100850.44;;;36.11;29.17
41596;BME280;27283;52.504;13.358;2023-06-26T10:28:08;100847.69;;;35.46;29.04
41596;BME280;27283;52.504;13.358;2023-06-26T10:31:13;100835.53;;;36.28;29.73
41596;BME280;27283;52.504;13.358;2023-06-26T10:37:52;100825.16;;;35.51;27.49
41596;BME280;27283;52.504;13.358;2023-06-26T10:41:10;100827.19;;;35.33;28.21
41596;BME280;27283;52.504;13.358;2023-06-26T10:44:10;100816.03;;;36.10;27.93
41596;BME280;27283;52.504;13.358;2023-06-26T10:47:32;100812.13;;;36.75;27.28
41596;BME280;27283;52.504;13.358;2023-06-26T10:50:33;100815.38;;;36.43;27.23
41596;BME280;27283;52.504;13.358;2023-06-26T10:54:06;100807.72;;;36.52;27.23
41596;BME280;27283;52.504;13.358;2023-06-26T10:57:35;100811.56;;;36.48;25.14
41596;BME280;27283;52.504;13.358;2023-06-26T11:01:23;100805.75;;;36.53;26.04
41596;BME280;27283;52.504;13.358;2023-06-26T11:04:21;100815.09;;;36.57;27.68
41596;BME280;27283;52.504;13.358;2023-06-26T11:08:03;100808.41;;;36.19;26.42
41596;BME280;27283;52.504;13.358;2023-06-26T11:11:00;100798.13;;;36.96;25.75
41596;BME280;27283;52.504;13.358;2023-06-26T11:14:37;100796.88;;;36.21;26.43
41596;BME280;27283;52.504;13.358;2023-06-26T11:17:59;100792.25;;;36.25;28.00
41596;BME280;27283;52.504;13.358;2023-06-26T11:21:14;100782.25;;;36.45;27.18
41596;BME280;27283;52.504;13.358;2023-06-26T11:24:07;100774.53;;;35.82;27.43
41596;BME280;27283;52.504;13.358;2023-06-26T11:27:14;100776.97;;;35.93;30.66
41596;BME280;27283;52.504;13.358;2023-06-26T11:29:59;100769.75;;;35.44;28.10
41596;BME280;27283;52.504;13.358;2023-06-26T11:32:46;100765.56;;;35.12;30.13
41596;BME280;27283;52.504;13.358;2023-06-26T11:35:29;100771.31;;;35.63;28.61
41596;BME280;27283;52.504;13.358;2023-06-26T11:38:20;100758.34;;;35.97;29.29
41596;BME280;27283;52.504;13.358;2023-06-26T11:41:18;100753.59;;;34.59;31.53
41596;BME280;27283;52.504;13.358;2023-06-26T11:44:05;100750.97;;;35.54;28.05
41596;BME280;27283;52.504;13.358;2023-06-26T11:46:59;100751.16;;;35.48;30.10
41596;BME280;27283;52.504;13.358;2023-06-26T11:49:56;100745.56;;;34.40;29.01
41596;BME280;27283;52.504;13.358;2023-06-26T11:53:05;100735.22;;;34.58;28.11
41596;BME280;27283;52.504;13.358;2023-06-26T11:55:54;100724.69;;;34.81;28.10
41596;BME280;27283;52.504;13.358;2023-06-26T11:59:05;100722.06;;;34.85;28.93
41596;BME280;27283;52.504;13.358;2023-06-26T12:02:00;100725.69;;;34.50;31.85
41596;BME280;27283;52.504;13.358;2023-06-26T12:05:28;100712.88;;;34.32;30.25
41596;BME280;27283;52.504;13.358;2023-06-26T12:08:16;100708.03;;;33.88;30.76
41596;BME280;27283;52.504;13.358;2023-06-26T12:10:53;100703.19;;;33.63;31.26
41596;BME280;27283;52.504;13.358;2023-06-26T12:13:40;100708.03;;;33.88;30.08
41596;BME280;27283;52.504;13.358;2023-06-26T12:21:00;100689.81;;;33.73;28.77
41596;BME280;27283;52.504;13.358;2023-06-26T12:24:09;100685.88;;;33.75;29.94
41596;BME280;27283;52.504;13.358;2023-06-26T12:27:17;100686.22;;;33.73;29.09
41596;BME280;27283;52.504;13.358;2023-06-26T12:31:14;100682.19;;;33.56;30.31
41596;BME280;27283;52.504;13.358;2023-06-26T12:34:28;100679.00;;;33.41;30.27
41596;BME280;27283;52.504;13.358;2023-06-26T12:37:59;100684.34;;;33.19;32.87
41596;BME280;27283;52.504;13.358;2023-06-26T12:41:17;100673.06;;;32.71;32.34
41596;BME280;27283;52.504;13.358;2023-06-26T12:44:18;100659.28;;;32.97;31.33
41596;BME280;27283;52.504;13.358;2023-06-26T12:47:43;100648.53;;;33.04;30.96
41596;BME280;27283;52.504;13.358;2023-06-26T12:50:43;100657.28;;;33.20;31.20
41596;BME280;27283;52.504;13.358;2023-06-26T12:56:55;100656.13;;;32.90;31.47
41596;BME280;27283;52.504;13.358;2023-06-26T12:59:39;100648.34;;;32.69;31.70
41596;BME280;27283;52.504;13.358;2023-06-26T13:02:42;100634.53;;;32.41;33.83
41596;BME280;27283;52.504;13.358;2023-06-26T13:05:25;100636.63;;;32.36;34.50
41596;BME280;27283;52.504;13.358;2023-06-26T13:08:05;100635.03;;;32.43;33.94
41596;BME280;27283;52.504;13.358;2023-06-26T13:10:49;100624.09;;;32.24;33.27
41596;BME280;27283;52.504;13.358;2023-06-26T13:13:36;100619.56;;;32.28;32.28
41596;BME280;27283;52.504;13.358;2023-06-26T13:16:46;100618.41;;;32.29;32.73
41596;BME280;27283;52.504;13.358;2023-06-26T13:19:23;100608.09;;;32.30;33.12
41596;BME280;27283;52.504;13.358;2023-06-26T13:21:56;100601.94;;;31.96;33.78
41596;BME280;27283;52.504;13.358;2023-06-26T13:24:34;100600.41;;;31.90;35.90
41596;BME280;27283;52.504;13.358;2023-06-26T13:27:09;100595.16;;;31.89;35.20
41596;BME280;27283;52.504;13.358;2023-06-26T13:30:20;100581.00;;;31.49;36.78
41596;BME280;27283;52.504;13.358;2023-06-26T13:33:26;100574.56;;;31.25;38.70
41596;BME280;27283;52.504;13.358;2023-06-26T13:36:33;100561.00;;;31.24;35.74
41596;BME280;27283;52.504;13.358;2023-06-26T13:39:39;100554.91;;;31.22;38.00
41596;BME280;27283;52.504;13.358;2023-06-26T13:42:35;100533.28;;;31.47;34.54
41596;BME280;27283;52.504;13.358;2023-06-26T13:45:47;100538.53;;;31.34;34.41
41596;BME280;27283;52.504;13.358;2023-06-26T13:48:25;100527.50;;;31.43;36.17
41596;BME280;27283;52.504;13.358;2023-06-26T13:51:00;100532.50;;;31.18;37.33
41596;BME280;27283;52.504;13.358;2023-06-26T13:54:03;100511.00;;;31.10;36.05
41596;BME280;27283;52.504;13.358;2023-06-26T13:56:53;100492.34;;;31.38;33.73
41596;BME280;27283;52.504;13.358;2023-06-26T13:59:56;100485.88;;;31.29;36.65
41596;BME280;27283;52.504;13.358;2023-06-26T14:03:10;100489.34;;;30.98;40.87
41596;BME280;27283;52.504;13.358;2023-06-26T14:06:24;100486.31;;;30.81;39.95
41596;BME280;27283;52.504;13.358;2023-06-26T14:09:20;100489.91;;;30.67;35.66
41596;BME280;27283;52.504;13.358;2023-06-26T14:12:36;100520.94;;;30.55;36.68
41596;BME280;27283;52.504;13.358;2023-06-26T14:15:33;100583.63;;;30.37;37.25
41596;BME280;27283;52.504;13.358;2023-06-26T14:18:54;100608.25;;;27.92;45.22
41596;BME280;27283;52.504;13.358;2023-06-26T14:21:59;100661.66;;;25.71;57.02
41596;BME280;27283;52.504;13.358;2023-06-26T14:24:54;100732.00;;;23.22;84.36
41596;BME280;27283;52.504;13.358;2023-06-26T14:27:59;100802.63;;;20.00;100.00
41596;BME280;27283;52.504;13.358;2023-06-26T14:31:22;100854.31;;;18.81;100.00
41596;BME280;27283;52.504;13.358;2023-06-26T14:34:30;100822.16;;;18.05;100.00
41596;BME280;27283;52.504;13.358;2023-06-26T14:37:19;100818.09;;;18.28;100.00
41596;BME280;27283;52.504;13.358;2023-06-26T14:40:08;100774.25;;;18.50;100.00
41596;BME280;27283;52.504;13.358;2023-06-26T14:43:08;100811.16;;;18.39;100.00
41596;BME280;27283;52.504;13.358;2023-06-26T14:46:08;100791.84;;;18.47;100.00
41596;BME280;27283;52.504;13.358;2023-06-26T15:10:29;100770.03;;;18.54;100.00
41596;BME280;27283;52.504;13.358;2023-06-26T15:18:04;100807.38;;;18.40;100.00
41596;BME280;27283;52.504;13.358;2023-06-26T15:21:19;100815.38;;;18.35;100.00
41596;BME280;27283;52.504;13.358;2023-06-26T15:24:09;100813.69;;;18.34;100.00
41596;BME280;27283;52.504;13.358;2023-06-26T15:36:31;100819.84;;;18.61;100.00
41596;BME280;27283;52.504;13.358;2023-06-26T15:39:11;100825.13;;;18.56;100.00
41596;BME280;27283;52.504;13.358;2023-06-26T15:42:07;100829.66;;;18.69;100.00
41596;BME280;27283;52.504;13.358;2023-06-26T15:45:12;100832.34;;;18.75;100.00
41596;BME280;27283;52.504;13.358;2023-06-26T15:48:19;100831.91;;;18.78;100.00